Wind From: 11-12-2017 06:00 Until: 12-12-2017 06:00 warning for: Wind Level: Orange info button

Power and phone distribution networks may be disrupted for relatively long periods., Roofs and chimneys can be damaged. , Tree branches may break. , Vehicles can be deported. , Traffic may be disrupted, particularly on secondary roads in forest areas. Limit your trips. , Limit your speed in highway driving, especially if you drive a vehicle or hitch sensitive to wind. , Do not go for walks in forests or along the coast., In town, be vigilant against possible falling objects., Do not work on roofs and do not touch any electrical line fallen on the ground., Store or secure sensitive objects to wind or likely to be damaged., Always install power generators outside buildings. 


Meteo18 Weather Cam more information Meteo18 Weather Cam


Thunder radar more information blitzortung!


Rain radar more information rain snow radar


Visit our other weather sites:

Template documentation
and downloads

And another site



Weather Underground History page Text

Daily Summary for June 27, 2017 Units:  Metric    English   Both
« Previous Day
Next Day »
Daily Weekly Monthly Yearly Custom
  High: Low: Average:
Temperature: 25.1 °C 16.1 °C 20.1 °C
Dew Point: 20.0 °C 15.4 °C 17.2 °C
Humidity: 97 % 64 % 84 %
Wind Speed: 22.5 km/h 0.0 km/h 4.7 km/h
Wind Gust: 32.2 km/h - -
Wind:- - SSW
Pressure: 1011.4 hPa 1002.9 hPa -
Precipitation: 2.3 mm    
Historical Graphs
 
 
Tabular Data for June 27, 2017
Time Temperature Dew Point Pressure Wind Wind Speed Wind Gust Humidity Rainfall Rate (Hourly)
00:02 17.9 °C 16.9 °C 1011.4 hPa Calm     94 % 0.0 mm
00:12 17.9 °C 17.1 °C 1011.4 hPa Calm     95 % 0.0 mm
00:17 17.8 °C 16.8 °C 1011.4 hPa Calm     94 % 0.0 mm
00:22 17.8 °C 16.8 °C 1011.1 hPa Calm     94 % 0.0 mm
00:32 17.7 °C 16.9 °C 1011.1 hPa Calm     95 % 0.0 mm
00:42 17.6 °C 16.8 °C 1011.1 hPa Calm     95 % 0.0 mm
00:52 17.4 °C 16.4 °C 1011.1 hPa Calm     94 % 0.0 mm
00:57 17.4 °C 16.6 °C 1011.1 hPa Calm     95 % 0.0 mm
01:02 17.3 °C 16.5 °C 1011.1 hPa Calm     95 % 0.0 mm
01:12 17.3 °C 16.5 °C 1010.7 hPa Calm     95 % 0.0 mm
01:17 17.3 °C 16.5 °C 1010.7 hPa Calm     95 % 0.0 mm
01:22 17.3 °C 16.5 °C 1010.7 hPa Calm     95 % 0.0 mm
01:27 17.2 °C 16.4 °C 1010.7 hPa Calm     95 % 0.0 mm
01:32 17.1 °C 16.3 °C 1010.7 hPa Calm     95 % 0.0 mm
01:37 17.1 °C 16.3 °C 1010.7 hPa Calm     95 % 0.0 mm
01:42 17.0 °C 16.2 °C 1010.7 hPa Calm     95 % 0.0 mm
01:52 16.9 °C 16.3 °C 1010.7 hPa Calm     96 % 0.0 mm
01:57 17.1 °C 16.5 °C 1010.7 hPa Calm     96 % 0.0 mm
02:02 17.3 °C 16.7 °C 1010.4 hPa NNE 3.2 km/h   96 % 0.0 mm
02:12 16.6 °C 15.6 °C 1010.4 hPa Calm   3.2 km/h 94 % 0.0 mm
02:17 16.6 °C 16.0 °C 1010.4 hPa Calm   3.2 km/h 96 % 0.0 mm
02:22 16.6 °C 15.8 °C 1010.4 hPa Calm   3.2 km/h 95 % 0.0 mm
02:27 16.6 °C 16.0 °C 1010.4 hPa Calm   3.2 km/h 96 % 0.0 mm
02:32 16.6 °C 15.8 °C 1010.4 hPa Calm   3.2 km/h 95 % 0.0 mm
02:37 16.5 °C 15.7 °C 1010.0 hPa Calm     95 % 0.0 mm
02:42 16.4 °C 15.6 °C 1010.0 hPa Calm     95 % 0.0 mm
02:47 16.3 °C 15.5 °C 1010.0 hPa Calm     95 % 0.0 mm
02:52 16.2 °C 15.6 °C 1010.0 hPa Calm     96 % 0.0 mm
02:57 16.3 °C 15.7 °C 1010.0 hPa Calm     96 % 0.0 mm
03:02 16.3 °C 15.7 °C 1010.0 hPa Calm     96 % 0.0 mm
03:12 16.2 °C 15.6 °C 1010.4 hPa WNW 3.2 km/h   96 % 0.0 mm
03:17 16.1 °C 15.5 °C 1010.4 hPa Calm   4.8 km/h 96 % 0.0 mm
03:22 16.2 °C 15.6 °C 1010.4 hPa Calm   4.8 km/h 96 % 0.0 mm
03:27 16.2 °C 15.6 °C 1010.4 hPa Calm   4.8 km/h 96 % 0.0 mm
03:32 16.2 °C 15.6 °C 1010.0 hPa Calm   4.8 km/h 96 % 0.0 mm
03:42 16.3 °C 15.7 °C 1010.0 hPa Calm   1.6 km/h 96 % 0.0 mm
03:47 16.3 °C 15.7 °C 1010.0 hPa NE 1.6 km/h   96 % 0.0 mm
03:52 16.3 °C 15.7 °C 1010.0 hPa Calm     96 % 0.0 mm
04:02 16.3 °C 15.7 °C 1009.7 hPa NNE 3.2 km/h 3.2 km/h 96 % 0.0 mm
04:12 16.1 °C 15.5 °C 1009.7 hPa Calm   4.8 km/h 96 % 0.0 mm
04:17 16.1 °C 15.5 °C 1009.7 hPa Calm   4.8 km/h 96 % 0.0 mm
04:22 16.1 °C 15.5 °C 1009.7 hPa Calm   4.8 km/h 96 % 0.0 mm
04:32 16.1 °C 15.5 °C 1009.7 hPa Calm     96 % 0.0 mm
04:42 16.1 °C 15.5 °C 1009.7 hPa Calm     96 % 0.0 mm
04:47 16.2 °C 15.6 °C 1009.7 hPa Calm     96 % 0.0 mm
04:52 16.3 °C 15.7 °C 1009.4 hPa Calm     96 % 0.0 mm
04:57 16.4 °C 15.8 °C 1009.7 hPa Calm     96 % 0.0 mm
05:02 16.4 °C 15.8 °C 1009.7 hPa Calm     96 % 0.0 mm
05:07 16.4 °C 15.8 °C 1009.7 hPa Calm     96 % 0.0 mm
05:12 16.4 °C 15.8 °C 1009.4 hPa Calm     96 % 0.0 mm
05:17 16.5 °C 15.9 °C 1009.4 hPa Calm     96 % 0.0 mm
05:22 16.7 °C 16.2 °C 1009.4 hPa Calm     97 % 0.0 mm
05:32 16.7 °C 16.1 °C 1009.4 hPa Calm     96 % 0.0 mm
05:42 16.7 °C 16.1 °C 1009.4 hPa Calm     96 % 0.0 mm
05:47 16.7 °C 16.1 °C 1009.4 hPa Calm     96 % 0.0 mm
05:52 16.8 °C 16.2 °C 1009.4 hPa Calm     96 % 0.0 mm
06:02 16.7 °C 16.1 °C 1009.4 hPa Calm     96 % 0.0 mm
06:12 16.6 °C 16.0 °C 1009.4 hPa Calm     96 % 0.0 mm
06:17 16.6 °C 16.0 °C 1009.4 hPa Calm     96 % 0.0 mm
06:22 16.6 °C 16.0 °C 1009.4 hPa Calm     96 % 0.0 mm
06:32 16.5 °C 15.9 °C 1009.4 hPa Calm     96 % 0.0 mm
06:42 16.4 °C 15.8 °C 1009.4 hPa Calm     96 % 0.0 mm
06:47 16.4 °C 15.8 °C 1009.4 hPa Calm     96 % 0.0 mm
06:52 16.4 °C 15.8 °C 1009.4 hPa Calm     96 % 0.0 mm
06:57 16.4 °C 15.8 °C 1009.4 hPa Calm     96 % 0.0 mm
07:02 16.3 °C 15.7 °C 1009.4 hPa Calm     96 % 0.0 mm
07:12 16.3 °C 15.7 °C 1009.4 hPa Calm     96 % 0.0 mm
07:17 16.3 °C 15.8 °C 1009.4 hPa Calm     97 % 0.0 mm
07:22 16.4 °C 15.9 °C 1009.4 hPa Calm     97 % 0.0 mm
07:32 16.6 °C 16.0 °C 1009.4 hPa SSW 1.6 km/h   96 % 0.0 mm
07:37 16.8 °C 16.3 °C 1009.4 hPa Calm   3.2 km/h 97 % 0.0 mm
07:42 17.1 °C 16.6 °C 1009.0 hPa Calm   3.2 km/h 97 % 0.0 mm
07:47 17.3 °C 16.7 °C 1009.4 hPa SSW 1.6 km/h 3.2 km/h 96 % 0.0 mm
07:52 17.4 °C 16.8 °C 1009.0 hPa SSW 1.6 km/h 3.2 km/h 96 % 0.0 mm
08:02 17.7 °C 17.1 °C 1009.4 hPa WSW 8.0 km/h 8.0 km/h 96 % 0.0 mm
08:07 17.9 °C 17.3 °C 1009.4 hPa SW 6.4 km/h 12.9 km/h 96 % 0.0 mm
08:12 18.2 °C 17.6 °C 1009.4 hPa South 4.8 km/h 12.9 km/h 96 % 0.0 mm
08:17 18.3 °C 17.5 °C 1009.4 hPa SSW 3.2 km/h 12.9 km/h 95 % 0.0 mm
08:22 18.5 °C 17.5 °C 1009.4 hPa SSW 3.2 km/h 12.9 km/h 94 % 0.0 mm
08:32 18.9 °C 17.7 °C 1009.0 hPa SW 4.8 km/h 12.9 km/h 93 % 0.0 mm
08:42 19.3 °C 17.8 °C 1009.0 hPa SW 6.4 km/h 11.3 km/h 91 % 0.0 mm
08:47 19.6 °C 18.3 °C 1009.0 hPa SW 6.4 km/h 9.7 km/h 92 % 0.0 mm
08:52 19.8 °C 18.3 °C 1009.0 hPa SSW 4.8 km/h 9.7 km/h 91 % 0.0 mm
09:02 19.9 °C 17.9 °C 1009.0 hPa SW 8.0 km/h 9.7 km/h 88 % 0.0 mm
09:12 20.2 °C 18.0 °C 1009.0 hPa SSW 3.2 km/h 14.5 km/h 87 % 0.3 mm
09:17 20.4 °C 17.8 °C 1009.0 hPa SSW 9.7 km/h 17.7 km/h 85 % 0.3 mm
09:22 20.4 °C 17.8 °C 1009.0 hPa SW 11.3 km/h 17.7 km/h 85 % 0.3 mm
09:32 20.6 °C 18.0 °C 1009.0 hPa South 9.7 km/h 17.7 km/h 85 % 0.3 mm
09:37 20.7 °C 18.1 °C 1009.0 hPa SSE 6.4 km/h 16.1 km/h 85 % 0.3 mm
09:42 20.6 °C 17.6 °C 1009.0 hPa SW 4.8 km/h 16.1 km/h 83 % 0.3 mm
09:52 20.9 °C 17.9 °C 1009.0 hPa SSW 4.8 km/h 16.1 km/h 83 % 0.3 mm
10:02 21.1 °C 17.9 °C 1009.0 hPa SSW 12.9 km/h 14.5 km/h 82 % 0.3 mm
10:12 21.4 °C 18.2 °C 1009.0 hPa South 4.8 km/h 12.9 km/h 82 % 0.0 mm
10:17 21.7 °C 18.1 °C 1009.0 hPa SSW 11.3 km/h 17.7 km/h 80 % 0.0 mm
10:22 21.7 °C 17.7 °C 1008.7 hPa SSW 14.5 km/h 17.7 km/h 78 % 0.0 mm
10:32 22.1 °C 17.9 °C 1008.7 hPa SW 6.4 km/h 17.7 km/h 77 % 0.0 mm
10:42 22.5 °C 17.8 °C 1008.7 hPa SW 11.3 km/h 17.7 km/h 75 % 0.0 mm
10:47 22.6 °C 17.9 °C 1008.7 hPa SW 3.2 km/h 16.1 km/h 75 % 0.0 mm
10:52 22.9 °C 17.8 °C 1008.7 hPa SE 6.4 km/h 16.1 km/h 73 % 0.0 mm
10:57 23.1 °C 18.2 °C 1008.7 hPa SSE 8.0 km/h 17.7 km/h 74 % 0.0 mm
11:02 23.2 °C 17.6 °C 1008.7 hPa SW 14.5 km/h 17.7 km/h 71 % 0.0 mm
11:12 23.4 °C 18.1 °C 1008.4 hPa WSW 8.0 km/h 22.5 km/h 72 % 0.0 mm
11:17 23.5 °C 18.2 °C 1008.4 hPa WSW 16.1 km/h 22.5 km/h 72 % 0.0 mm
11:22 23.3 °C 17.7 °C 1008.4 hPa SW 8.0 km/h 22.5 km/h 71 % 0.0 mm
11:32 23.2 °C 17.6 °C 1008.4 hPa SSW 8.0 km/h 20.9 km/h 71 % 0.0 mm
11:37 23.2 °C 17.6 °C 1008.4 hPa WSW 11.3 km/h 19.3 km/h 71 % 0.0 mm
11:42 23.2 °C 17.6 °C 1008.4 hPa SW 9.7 km/h 19.3 km/h 71 % 0.0 mm
11:47 23.2 °C 17.2 °C 1008.4 hPa SW 11.3 km/h 20.9 km/h 69 % 0.0 mm
11:52 23.1 °C 17.1 °C 1008.4 hPa WSW 3.2 km/h 20.9 km/h 69 % 0.0 mm
12:02 23.3 °C 17.3 °C 1008.4 hPa WSW 9.7 km/h 20.9 km/h 69 % 0.0 mm
12:12 23.4 °C 17.4 °C 1008.0 hPa SW 11.3 km/h 16.1 km/h 69 % 0.0 mm
12:17 23.2 °C 17.2 °C 1008.0 hPa SSW 6.4 km/h 17.7 km/h 69 % 0.0 mm
12:22 23.2 °C 17.2 °C 1008.0 hPa SW 8.0 km/h 17.7 km/h 69 % 0.0 mm
12:32 23.3 °C 18.0 °C 1008.0 hPa SSW 4.8 km/h 22.5 km/h 72 % 0.0 mm
12:37 23.2 °C 18.1 °C 1008.0 hPa SSW 8.0 km/h 22.5 km/h 73 % 0.0 mm
12:42 23.2 °C 18.1 °C 1008.0 hPa SSW 12.9 km/h 17.7 km/h 73 % 0.0 mm
12:47 23.3 °C 18.4 °C 1008.0 hPa South 12.9 km/h 17.7 km/h 74 % 0.0 mm
12:52 23.3 °C 18.2 °C 1008.0 hPa WSW 12.9 km/h 17.7 km/h 73 % 0.0 mm
12:57 23.4 °C 18.5 °C 1008.0 hPa SSW 6.4 km/h 19.3 km/h 74 % 0.0 mm
13:02 23.3 °C 18.2 °C 1007.7 hPa SW 3.2 km/h 19.3 km/h 73 % 0.0 mm
13:12 22.9 °C 18.2 °C 1007.7 hPa SE 1.6 km/h 14.5 km/h 75 % 0.0 mm
13:17 22.8 °C 17.9 °C 1007.7 hPa SSW 4.8 km/h 14.5 km/h 74 % 0.0 mm
13:27 22.9 °C 18.4 °C 1007.3 hPa SW 1.6 km/h 12.9 km/h 76 % 0.0 mm
13:32 23.5 °C 18.6 °C 1007.3 hPa South 9.7 km/h 12.9 km/h 74 % 0.0 mm
13:42 23.9 °C 17.6 °C 1007.3 hPa SW 8.0 km/h 17.7 km/h 68 % 0.0 mm
13:47 24.0 °C 18.4 °C 1007.3 hPa SSW 14.5 km/h 17.7 km/h 71 % 0.0 mm
13:52 24.1 °C 18.3 °C 1007.3 hPa SW 8.0 km/h 16.1 km/h 70 % 0.0 mm
13:57 24.6 °C 18.5 °C 1007.0 hPa SSE 3.2 km/h 16.1 km/h 69 % 0.0 mm
14:02 25.1 °C 18.1 °C 1007.0 hPa South 9.7 km/h 17.7 km/h 65 % 0.0 mm
14:12 24.8 °C 17.5 °C 1006.7 hPa SW 4.8 km/h 19.3 km/h 64 % 0.0 mm
14:17 24.7 °C 17.7 °C 1006.7 hPa SSE 4.8 km/h 19.3 km/h 65 % 0.0 mm
14:22 24.7 °C 17.7 °C 1006.7 hPa WSW 3.2 km/h 19.3 km/h 65 % 0.0 mm
14:27 24.4 °C 17.9 °C 1006.7 hPa West 4.8 km/h 11.3 km/h 67 % 0.0 mm
14:32 22.8 °C 18.3 °C 1006.7 hPa West 16.1 km/h 16.1 km/h 76 % 0.0 mm
14:37 21.7 °C 18.3 °C 1006.7 hPa NW 4.8 km/h 30.6 km/h 81 % 0.8 mm
14:42 21.3 °C 18.1 °C 1006.7 hPa WNW 1.6 km/h 30.6 km/h 82 % 0.8 mm
14:47 21.1 °C 18.3 °C 1006.7 hPa WNW 6.4 km/h 30.6 km/h 84 % 1.0 mm
14:52 20.7 °C 18.5 °C 1006.7 hPa WNW 3.2 km/h 20.9 km/h 87 % 1.0 mm
14:57 20.7 °C 18.5 °C 1006.7 hPa Calm   12.9 km/h 87 % 2.3 mm
15:02 21.1 °C 19.2 °C 1006.3 hPa NE 1.6 km/h 12.9 km/h 89 % 2.3 mm
15:12 21.8 °C 19.5 °C 1006.3 hPa NNE 3.2 km/h 8.0 km/h 87 % 2.3 mm
15:17 22.1 °C 19.1 °C 1006.3 hPa Calm   6.4 km/h 83 % 2.3 mm
15:27 22.6 °C 19.9 °C 1006.3 hPa NE 4.8 km/h 6.4 km/h 85 % 2.0 mm
15:32 22.4 °C 19.2 °C 1006.0 hPa NNE 1.6 km/h 6.4 km/h 82 % 2.0 mm
15:37 22.7 °C 19.5 °C 1006.0 hPa NE 6.4 km/h 8.0 km/h 82 % 1.5 mm
15:42 23.2 °C 19.4 °C 1006.0 hPa ENE 3.2 km/h 8.0 km/h 79 % 1.5 mm
15:47 23.7 °C 20.0 °C 1006.0 hPa NE 1.6 km/h 9.7 km/h 80 % 1.3 mm
15:52 23.9 °C 19.4 °C 1005.6 hPa NE 3.2 km/h 9.7 km/h 76 % 1.3 mm
15:57 23.9 °C 19.2 °C 1005.6 hPa NE 3.2 km/h 9.7 km/h 75 % 0.0 mm
16:02 24.0 °C 19.5 °C 1005.6 hPa ENE 3.2 km/h 9.7 km/h 76 % 0.0 mm
16:12 24.7 °C 18.9 °C 1005.6 hPa SW 1.6 km/h 9.7 km/h 70 % 0.0 mm
16:17 25.1 °C 19.2 °C 1005.6 hPa Calm   8.0 km/h 70 % 0.0 mm
16:22 25.0 °C 19.1 °C 1005.3 hPa East 9.7 km/h 9.7 km/h 70 % 0.0 mm
16:32 24.7 °C 18.9 °C 1005.3 hPa East 4.8 km/h 11.3 km/h 70 % 0.0 mm
16:37 24.6 °C 18.8 °C 1005.3 hPa ENE 8.0 km/h 11.3 km/h 70 % 0.0 mm
16:42 24.7 °C 19.1 °C 1005.3 hPa East 3.2 km/h 11.3 km/h 71 % 0.0 mm
16:52 24.8 °C 19.0 °C 1005.3 hPa NE 3.2 km/h 9.7 km/h 70 % 0.0 mm
16:57 24.8 °C 19.0 °C 1005.3 hPa ENE 8.0 km/h 11.3 km/h 70 % 0.0 mm
17:02 24.8 °C 19.0 °C 1005.0 hPa ENE 8.0 km/h 11.3 km/h 70 % 0.0 mm
17:12 24.8 °C 19.0 °C 1005.0 hPa East 8.0 km/h 11.3 km/h 70 % 0.0 mm
17:17 24.7 °C 18.9 °C 1005.0 hPa East 3.2 km/h 11.3 km/h 70 % 0.0 mm
17:22 24.7 °C 18.6 °C 1004.6 hPa ENE 3.2 km/h 11.3 km/h 69 % 0.0 mm
17:27 24.8 °C 19.0 °C 1004.6 hPa Calm   9.7 km/h 70 % 0.0 mm
17:32 24.7 °C 19.1 °C 1004.6 hPa West 4.8 km/h 9.7 km/h 71 % 0.0 mm
17:37 24.7 °C 18.9 °C 1004.6 hPa SW 1.6 km/h 6.4 km/h 70 % 0.0 mm
17:42 24.7 °C 18.9 °C 1004.6 hPa WSW 4.8 km/h 6.4 km/h 70 % 0.0 mm
17:47 24.7 °C 19.3 °C 1004.3 hPa Calm   6.4 km/h 72 % 0.0 mm
17:57 24.6 °C 19.0 °C 1004.3 hPa West 3.2 km/h 9.7 km/h 71 % 0.0 mm
18:07 24.2 °C 17.9 °C 1004.3 hPa SW 8.0 km/h 19.3 km/h 68 % 0.0 mm
18:17 24.1 °C 17.1 °C 1004.3 hPa West 6.4 km/h 19.3 km/h 65 % 0.0 mm
18:27 24.1 °C 16.9 °C 1004.3 hPa SW 9.7 km/h 24.1 km/h 64 % 0.0 mm
18:32 24.2 °C 17.0 °C 1004.3 hPa West 11.3 km/h 25.7 km/h 64 % 0.0 mm
18:37 24.1 °C 17.1 °C 1003.9 hPa WSW 16.1 km/h 25.7 km/h 65 % 0.0 mm
18:42 23.8 °C 17.3 °C 1003.9 hPa SW 4.8 km/h 32.2 km/h 67 % 0.0 mm
18:52 23.2 °C 17.0 °C 1003.9 hPa SW 22.5 km/h 32.2 km/h 68 % 0.0 mm
18:57 23.0 °C 17.0 °C 1003.9 hPa West 6.4 km/h 25.7 km/h 69 % 0.0 mm
19:02 22.7 °C 16.9 °C 1003.6 hPa WSW 20.9 km/h 25.7 km/h 70 % 0.0 mm
19:07 22.4 °C 17.3 °C 1003.3 hPa West 8.0 km/h 25.7 km/h 73 % 0.0 mm
19:12 22.0 °C 17.4 °C 1003.3 hPa West 9.7 km/h 25.7 km/h 75 % 0.0 mm
19:17 21.8 °C 17.4 °C 1002.9 hPa Calm   24.1 km/h 76 % 0.0 mm
19:22 21.7 °C 17.3 °C 1002.9 hPa NW 3.2 km/h 24.1 km/h 76 % 0.0 mm
19:32 21.6 °C 17.4 °C 1002.9 hPa Calm   12.9 km/h 77 % 0.0 mm
19:42 21.4 °C 17.4 °C 1003.3 hPa Calm   6.4 km/h 78 % 0.0 mm
19:52 21.3 °C 17.3 °C 1003.3 hPa Calm   6.4 km/h 78 % 0.0 mm
20:02 21.3 °C 17.3 °C 1003.3 hPa Calm   6.4 km/h 78 % 0.0 mm
20:12 21.2 °C 17.4 °C 1003.6 hPa Calm   4.8 km/h 79 % 0.0 mm
20:17 21.1 °C 17.7 °C 1003.6 hPa Calm   4.8 km/h 81 % 0.0 mm
20:22 20.9 °C 17.5 °C 1003.9 hPa East 8.0 km/h 8.0 km/h 81 % 0.0 mm
20:27 20.7 °C 17.7 °C 1003.9 hPa SSE 3.2 km/h 11.3 km/h 83 % 0.0 mm
20:37 20.4 °C 17.8 °C 1004.3 hPa SW 1.6 km/h 11.3 km/h 85 % 0.0 mm
20:42 20.3 °C 17.7 °C 1004.3 hPa SSW 3.2 km/h 11.3 km/h 85 % 0.0 mm
20:47 20.2 °C 17.8 °C 1004.3 hPa SSW 6.4 km/h 8.0 km/h 86 % 0.0 mm
20:52 20.1 °C 17.9 °C 1004.3 hPa SW 9.7 km/h 9.7 km/h 87 % 0.0 mm
20:57 20.1 °C 17.9 °C 1004.3 hPa SW 8.0 km/h 16.1 km/h 87 % 0.0 mm
21:02 19.9 °C 17.9 °C 1004.3 hPa SW 12.9 km/h 16.1 km/h 88 % 0.0 mm
21:12 19.7 °C 17.8 °C 1004.3 hPa SSW 4.8 km/h 16.1 km/h 89 % 0.0 mm
21:22 19.5 °C 17.6 °C 1004.6 hPa SSW 11.3 km/h 14.5 km/h 89 % 0.0 mm
21:32 19.4 °C 17.7 °C 1005.0 hPa SW 11.3 km/h 20.9 km/h 90 % 0.0 mm
21:37 19.3 °C 17.6 °C 1005.0 hPa SW 17.7 km/h 17.7 km/h 90 % 0.0 mm
21:47 19.3 °C 17.8 °C 1004.6 hPa SSW 12.9 km/h 17.7 km/h 91 % 0.0 mm
21:52 19.3 °C 17.8 °C 1004.6 hPa SW 8.0 km/h 17.7 km/h 91 % 0.0 mm
22:02 19.2 °C 17.5 °C 1003.9 hPa SSW 8.0 km/h 17.7 km/h 90 % 0.0 mm
22:12 19.1 °C 17.4 °C 1003.9 hPa SW 9.7 km/h 17.7 km/h 90 % 0.0 mm
22:17 19.1 °C 17.4 °C 1003.9 hPa SSW 6.4 km/h 16.1 km/h 90 % 0.0 mm
22:22 19.0 °C 17.3 °C 1004.3 hPa SW 4.8 km/h 16.1 km/h 90 % 0.0 mm
22:27 18.9 °C 17.2 °C 1004.3 hPa SW 8.0 km/h 16.1 km/h 90 % 0.0 mm
22:32 18.9 °C 17.2 °C 1004.3 hPa SSE 9.7 km/h 16.1 km/h 90 % 0.0 mm
22:37 18.9 °C 17.2 °C 1004.6 hPa South 8.0 km/h 12.9 km/h 90 % 0.0 mm
22:42 18.9 °C 17.0 °C 1004.6 hPa SSW 8.0 km/h 12.9 km/h 89 % 0.0 mm
22:52 18.8 °C 16.8 °C 1005.0 hPa SW 9.7 km/h 12.9 km/h 88 % 0.0 mm
22:57 18.8 °C 16.4 °C 1005.0 hPa SW 14.5 km/h 19.3 km/h 86 % 0.0 mm
23:02 18.8 °C 16.2 °C 1005.0 hPa SW 11.3 km/h 19.3 km/h 85 % 0.0 mm
23:12 18.8 °C 16.2 °C 1004.6 hPa WSW 14.5 km/h 20.9 km/h 85 % 0.0 mm
23:17 18.8 °C 16.4 °C 1004.6 hPa SW 14.5 km/h 25.7 km/h 86 % 0.0 mm
23:22 18.7 °C 16.3 °C 1004.6 hPa South 8.0 km/h 25.7 km/h 86 % 0.0 mm
23:27 18.6 °C 16.2 °C 1004.3 hPa SW 14.5 km/h 24.1 km/h 86 % 0.0 mm
23:32 18.5 °C 16.1 °C 1004.6 hPa South 8.0 km/h 24.1 km/h 86 % 0.0 mm
23:37 18.4 °C 16.0 °C 1004.6 hPa SW 6.4 km/h 17.7 km/h 86 % 0.0 mm
23:42 18.4 °C 15.8 °C 1004.6 hPa SW 9.7 km/h 17.7 km/h 85 % 0.0 mm
23:47 18.4 °C 15.6 °C 1004.6 hPa SSW 3.2 km/h 17.7 km/h 84 % 0.0 mm
23:52 18.4 °C 15.5 °C 1004.6 hPa SSW 8.0 km/h 17.7 km/h 83 % 0.0 mm
23:57 18.3 °C 15.4 °C 1004.6 hPa WSW 16.1 km/h 19.3 km/h 83 % 0.0 mm
Meteo18
Compliments of Weather Underground - 4 mb

Script developed by  Jim McMurry - jmcmurry@mwt.net Adapted for the template by  Wim van der Kuil - Leuven-Template.eu

You find our weather info also at:

European Weather Network

Weather Underground

Equipment we use:

Weather-station
Davis Vue

Weather-program
Meteohub

Weather-server
Raspberry PI 2 B+

Provider
1 and 1

Davis Vue

Meteohub

Raspberry PI 2 B+

1 and 1